Mazi Alex Otti Heliport

NG-0010 · Abia, Nigeria

METAR pasados NG-0010 · Mazi Alex Otti Heliport

A continuación puedes ver los METAR de los últimos días. Selecciona un año para ver los METAR más antiguos, desde el año 2007 en adelante.

22 de mayo de 2024

Hora Código Tiempo Temp. Visibilidad Cielo nuboso Viento METAR/SPECI
18:00
M
27 °C 10 km+ 1.100 ft 360° 360° 0 kt METAR DNIM 221700Z 00000KT 9999 BKN011 27/23 Q1011
16:00
M
28 °C 10 km+ 1.100 ft 360° 360° 0 kt METAR DNIM 221500Z 00000KT 9999 BKN011 28/24 Q1011

20 de mayo de 2024

Hora Código Tiempo Temp. Visibilidad Cielo nuboso Viento METAR/SPECI
15:00
M
33 °C 10 km+ 1.300 ft 260° 260° 8 kt METAR DNIM 201400Z 26008KT 9999 BKN013 33/26 Q1010
14:00
M
33 °C 10 km+ 1.300 ft 240° 240° 14 kt METAR DNIM 201300Z 24014KT 9999 BKN013 33/25 Q1011
12:00
M
32 °C 10 km+ 1.300 ft 190° 190° 12 kt METAR DNIM 201100Z 19012KT 9999 BKN013 32/26 Q1012
11:00
M
30 °C 10 km+ 1.200 ft 180° 180° 10 kt METAR DNIM 201000Z 18010KT 9999 BKN012 30/26 Q1013
09:00
M
28 °C 10 km+ 1.100 ft 360° 360° 0 kt METAR DNIM 200800Z 00000KT 9999 BKN011 28/27 Q1013
07:00
M
27 °C 10 km+ 1.100 ft 360° 360° 0 kt METAR DNIM 200600Z 00000KT 9999 BKN011 FEW019CB[N-S] 27/26 Q1012
Cambiar esta información